Time;durP1;ratioP1;P1;durP2;ratioP2;P2;SDS_P1;SDS_P2;PMS_P1;PMS_P2;Temp;Humidity;BMP_temperature;BMP_pressure;BME280_temperature;BME280_humidity;BME280_pressure;Samples;Min_cycle;Max_cycle;Signal;HPM_P1;HPM_P2
2022/09/09 00:01:51;;;;;;;30.60;20.25;;;;;;;;;;2354538;57;21069;-84
2022/09/09 00:04:23;;;;;;;35.05;21.50;;;;;;;;;;2354552;57;21025;-82
2022/09/09 00:06:54;;;;;;;32.13;20.25;;;;;;;;;;2354325;57;21109;-83
2022/09/09 00:09:22;;;;;;;33.08;20.25;;;;;;;;;;2354599;57;21026;-83
2022/09/09 00:11:52;;;;;;;50.12;25.23;;;;;;;;;;2354614;57;21026;-83
2022/09/09 00:14:24;;;;;;;32.75;21.55;;;;;;;;;;2603117;53;21533;-83
2022/09/09 00:16:53;;;;;;;31.83;20.42;;;;;;;;;;2354013;57;21085;-83
2022/09/09 00:19:23;;;;;;;36.13;21.77;;;;;;;;;;2354468;57;21037;-82
2022/09/09 00:21:53;;;;;;;34.97;20.90;;;;;;;;;;2354650;57;21022;-82
2022/09/09 00:24:25;;;;;;;28.77;19.45;;;;;;;;;;2354518;57;21102;-84
2022/09/09 00:26:54;;;;;;;28.62;19.08;;;;;;;;;;2602698;53;21026;-83
2022/09/09 00:29:26;;;;;;;29.98;19.17;;;;;;;;;;2602999;52;21161;-83
2022/09/09 00:31:56;;;;;;;34.03;21.00;;;;;;;;;;2603063;53;21506;-83
2022/09/09 00:34:26;;;;;;;29.37;19.65;;;;;;;;;;2354437;57;21021;-82
2022/09/09 00:36:53;;;;;;;35.90;21.23;;;;;;;;;;2603142;53;21093;-84
2022/09/09 00:39:24;;;;;;;33.25;20.25;;;;;;;;;;2603510;52;21071;-82
2022/09/09 00:42:00;;;;;;;35.35;20.15;;;;;;;;;;2603307;53;21064;-82
2022/09/09 00:44:30;;;;;;;30.48;19.65;;;;;;;;;;2603428;53;21533;-83
2022/09/09 00:47:02;;;;;;;25.12;17.48;;;;;;;;;;2354185;57;21509;-83
2022/09/09 00:49:37;;;;;;;24.67;16.45;;;;;;;;;;2354863;57;21042;-83
2022/09/09 00:52:09;;;;;;;29.52;18.12;;;;;;;;;;2354732;57;21109;-83
2022/09/09 00:54:40;;;;;;;30.42;19.55;;;;;;;;;;2354621;57;21037;-81
2022/09/09 00:57:23;;;;;;;52.75;22.85;;;;;;;;;;2354292;57;21034;-83
2022/09/09 00:59:52;;;;;;;31.87;20.40;;;;;;;;;;2354927;57;21121;-82
2022/09/09 01:02:27;;;;;;;27.08;18.77;;;;;;;;;;2603368;53;21811;-84
2022/09/09 01:04:55;;;;;;;33.15;20.30;;;;;;;;;;2603470;53;21033;-82
2022/09/09 01:07:22;;;;;;;35.60;20.77;;;;;;;;;;2354337;57;21029;-83
2022/09/09 01:09:56;;;;;;;27.65;18.80;;;;;;;;;;2603246;52;21526;-83
2022/09/09 01:12:29;;;;;;;51.65;23.00;;;;;;;;;;2603453;53;21038;-83
2022/09/09 01:15:03;;;;;;;28.20;18.58;;;;;;;;;;2603060;53;21090;-82
2022/09/09 01:17:32;;;;;;;26.55;17.10;;;;;;;;;;2603030;53;21040;-85
2022/09/09 01:20:05;;;;;;;25.58;17.20;;;;;;;;;;2602275;52;21511;-82
2022/09/09 01:22:36;;;;;;;26.02;17.40;;;;;;;;;;2353792;57;21058;-82
2022/09/09 01:25:15;;;;;;;31.98;18.12;;;;;;;;;;2353365;57;21033;-82
2022/09/09 01:27:43;;;;;;;23.58;15.98;;;;;;;;;;2353383;57;21081;-82
2022/09/09 01:30:12;;;;;;;27.33;18.35;;;;;;;;;;2353310;57;21097;-82
2022/09/09 01:32:41;;;;;;;24.52;16.65;;;;;;;;;;2601832;53;21582;-82
2022/09/09 01:35:10;;;;;;;21.12;14.70;;;;;;;;;;2601935;53;21058;-82
2022/09/09 01:37:38;;;;;;;31.70;18.27;;;;;;;;;;2352980;57;21073;-82
2022/09/09 01:40:06;;;;;;;20.23;13.85;;;;;;;;;;2353774;57;21045;-83
2022/09/09 01:42:32;;;;;;;25.08;16.65;;;;;;;;;;2354596;57;21021;-83
2022/09/09 01:44:59;;;;;;;26.83;15.60;;;;;;;;;;2354505;57;21519;-83
2022/09/09 01:47:26;;;;;;;24.25;16.08;;;;;;;;;;2603077;53;21033;-84
2022/09/09 01:49:53;;;;;;;23.65;15.02;;;;;;;;;;2354794;57;21101;-83
2022/09/09 01:52:20;;;;;;;22.05;14.65;;;;;;;;;;2603462;53;21097;-84
2022/09/09 01:54:47;;;;;;;29.92;17.00;;;;;;;;;;2602995;53;21017;-82
2022/09/09 01:57:17;;;;;;;20.05;14.60;;;;;;;;;;2354278;57;21116;-86
2022/09/09 01:59:49;;;;;;;23.30;15.20;;;;;;;;;;2354520;57;21542;-82
2022/09/09 02:02:18;;;;;;;24.50;16.53;;;;;;;;;;2603862;53;21038;-84
2022/09/09 02:04:46;;;;;;;26.33;14.82;;;;;;;;;;2354682;57;21045;-82
2022/09/09 02:07:22;;;;;;;21.85;14.85;;;;;;;;;;2603146;53;21018;-84
2022/09/09 02:09:52;;;;;;;22.02;14.95;;;;;;;;;;2354672;57;21616;-83
2022/09/09 02:12:22;;;;;;;20.58;14.65;;;;;;;;;;2354596;57;21570;-84
2022/09/09 02:14:51;;;;;;;30.60;17.58;;;;;;;;;;2353886;57;21034;-83
2022/09/09 02:17:22;;;;;;;21.52;15.00;;;;;;;;;;2602099;53;21038;-82
2022/09/09 02:19:50;;;;;;;23.52;15.88;;;;;;;;;;2353946;57;21510;-83
2022/09/09 02:22:18;;;;;;;23.20;16.15;;;;;;;;;;2353970;57;21567;-82
2022/09/09 02:24:46;;;;;;;20.67;13.50;;;;;;;;;;2353966;57;21090;-82
2022/09/09 02:27:14;;;;;;;26.25;16.87;;;;;;;;;;2353864;57;21033;-83
2022/09/09 02:29:42;;;;;;;31.98;17.90;;;;;;;;;;2354160;57;21037;-82
2022/09/09 02:32:12;;;;;;;24.35;15.57;;;;;;;;;;2353990;57;21033;-82
2022/09/09 02:34:40;;;;;;;22.60;15.45;;;;;;;;;;2354278;57;21038;-82
2022/09/09 02:37:09;;;;;;;20.23;14.70;;;;;;;;;;2601974;53;21097;-83
2022/09/09 02:39:36;;;;;;;22.70;15.27;;;;;;;;;;2602119;52;21038;-82
2022/09/09 02:42:04;;;;;;;40.95;18.02;;;;;;;;;;2353871;57;21030;-81
2022/09/09 02:44:31;;;;;;;24.98;15.38;;;;;;;;;;2602336;53;21033;-82
2022/09/09 02:47:12;;;;;;;24.08;15.32;;;;;;;;;;2601745;53;21110;-82
2022/09/09 02:49:43;;;;;;;26.08;16.08;;;;;;;;;;2602306;52;21084;-82
2022/09/09 02:52:15;;;;;;;19.30;13.98;;;;;;;;;;2602328;53;21039;-82
2022/09/09 02:54:43;;;;;;;20.17;14.18;;;;;;;;;;2353939;57;21041;-82
2022/09/09 02:57:12;;;;;;;21.05;14.10;;;;;;;;;;2353459;57;21100;-81
2022/09/09 02:59:39;;;;;;;24.75;16.70;;;;;;;;;;2353850;57;21045;-82
2022/09/09 03:02:06;;;;;;;24.30;16.05;;;;;;;;;;2602145;53;21101;-82
2022/09/09 03:04:33;;;;;;;20.60;14.80;;;;;;;;;;2353736;57;21148;-83
2022/09/09 03:07:00;;;;;;;19.42;13.93;;;;;;;;;;2353495;57;21089;-81
2022/09/09 03:09:27;;;;;;;27.48;16.17;;;;;;;;;;2353929;57;21097;-84
2022/09/09 03:11:55;;;;;;;28.02;16.60;;;;;;;;;;2353729;57;21136;-82
2022/09/09 03:14:24;;;;;;;20.23;14.27;;;;;;;;;;2602066;53;21093;-83
2022/09/09 03:16:51;;;;;;;22.05;15.43;;;;;;;;;;2601712;53;21100;-83
2022/09/09 03:19:18;;;;;;;26.65;17.40;;;;;;;;;;2602267;52;21149;-82
2022/09/09 03:21:45;;;;;;;19.30;14.27;;;;;;;;;;2602144;53;21033;-79
2022/09/09 03:24:13;;;;;;;23.62;16.10;;;;;;;;;;2602102;53;21519;-82
2022/09/09 03:26:40;;;;;;;23.90;16.65;;;;;;;;;;2353401;57;21510;-82
2022/09/09 03:29:07;;;;;;;26.60;16.98;;;;;;;;;;2353646;57;21145;-82
2022/09/09 03:31:35;;;;;;;25.60;16.98;;;;;;;;;;2353548;57;21038;-83
2022/09/09 03:34:02;;;;;;;40.85;20.67;;;;;;;;;;2353674;57;21660;-82
2022/09/09 03:36:30;;;;;;;24.42;17.52;;;;;;;;;;2353336;57;21093;-84
2022/09/09 03:38:57;;;;;;;25.58;16.73;;;;;;;;;;2353595;57;21510;-82
2022/09/09 03:41:25;;;;;;;29.15;18.15;;;;;;;;;;2353635;57;21518;-82
2022/09/09 03:43:52;;;;;;;24.85;16.50;;;;;;;;;;2601953;53;21506;-82
2022/09/09 03:46:19;;;;;;;30.60;19.35;;;;;;;;;;2353203;57;21042;-81
2022/09/09 03:48:46;;;;;;;24.27;16.27;;;;;;;;;;2353720;57;21096;-83
2022/09/09 03:51:13;;;;;;;25.92;17.60;;;;;;;;;;2601948;53;21025;-82
2022/09/09 03:53:40;;;;;;;29.35;18.60;;;;;;;;;;2353359;57;21069;-84
2022/09/09 03:56:07;;;;;;;24.12;16.75;;;;;;;;;;2601264;53;21093;-82
2022/09/09 03:58:34;;;;;;;35.75;18.75;;;;;;;;;;2353300;57;21109;-81
2022/09/09 04:01:02;;;;;;;31.08;18.17;;;;;;;;;;2353291;57;21033;-81
2022/09/09 04:03:30;;;;;;;25.62;16.90;;;;;;;;;;2353391;57;21097;-82
2022/09/09 04:05:58;;;;;;;25.42;16.65;;;;;;;;;;2353112;57;21045;-82
2022/09/09 04:08:25;;;;;;;28.55;17.67;;;;;;;;;;2601721;53;21455;-81
2022/09/09 04:10:52;;;;;;;24.37;16.48;;;;;;;;;;2353144;57;21033;-82
2022/09/09 04:13:20;;;;;;;17.73;12.93;;;;;;;;;;2353364;57;21092;-82
2022/09/09 04:15:52;;;;;;;27.77;17.05;;;;;;;;;;2352940;57;21042;-81
2022/09/09 04:18:19;;;;;;;24.37;16.55;;;;;;;;;;2353219;57;21117;-82
2022/09/09 04:20:47;;;;;;;25.88;16.67;;;;;;;;;;2601486;52;21058;-82
2022/09/09 04:23:14;;;;;;;26.62;16.87;;;;;;;;;;2601612;53;21026;-83
2022/09/09 04:25:45;;;;;;;26.62;17.33;;;;;;;;;;2353670;57;21081;-83
2022/09/09 04:28:12;;;;;;;27.08;16.98;;;;;;;;;;2354554;57;21089;-83
2022/09/09 04:30:39;;;;;;;25.05;15.57;;;;;;;;;;2354448;57;21117;-82
2022/09/09 04:33:06;;;;;;;31.80;17.95;;;;;;;;;;2603282;53;21022;-83
2022/09/09 04:35:35;;;;;;;23.87;16.37;;;;;;;;;;2354019;57;21053;-84
2022/09/09 04:38:02;;;;;;;27.02;17.20;;;;;;;;;;2354437;57;21046;-82
2022/09/09 04:40:29;;;;;;;27.75;17.90;;;;;;;;;;2603259;52;21502;-84
2022/09/09 04:42:58;;;;;;;27.48;17.98;;;;;;;;;;2603225;53;21081;-84
2022/09/09 04:45:26;;;;;;;26.05;16.62;;;;;;;;;;2354201;57;21049;-84
2022/09/09 04:47:53;;;;;;;27.27;17.48;;;;;;;;;;2354526;57;21529;-83
2022/09/09 04:50:20;;;;;;;28.00;18.23;;;;;;;;;;2354536;57;21033;-85
2022/09/09 04:52:47;;;;;;;31.15;18.95;;;;;;;;;;2603217;53;21037;-82
2022/09/09 04:55:14;;;;;;;24.33;16.48;;;;;;;;;;2602762;53;21066;-82
2022/09/09 04:57:41;;;;;;;33.78;19.10;;;;;;;;;;2354261;57;21102;-82
2022/09/09 05:00:10;;;;;;;23.38;16.00;;;;;;;;;;2354284;57;21510;-82
2022/09/09 05:02:38;;;;;;;23.58;15.93;;;;;;;;;;2603091;53;21034;-82
2022/09/09 05:05:06;;;;;;;29.30;18.52;;;;;;;;;;2354224;57;21022;-82
2022/09/09 05:07:32;;;;;;;24.17;16.60;;;;;;;;;;2354177;57;21113;-85
2022/09/09 05:09:59;;;;;;;24.48;15.57;;;;;;;;;;2602801;52;21026;-82
2022/09/09 05:12:26;;;;;;;24.17;16.10;;;;;;;;;;2603087;53;21025;-82
2022/09/09 05:14:53;;;;;;;23.98;16.15;;;;;;;;;;2603019;53;21558;-84
2022/09/09 05:17:20;;;;;;;25.75;16.80;;;;;;;;;;2354046;57;21038;-82
2022/09/09 05:19:47;;;;;;;25.85;15.00;;;;;;;;;;2603099;52;21073;-81
2022/09/09 05:22:18;;;;;;;21.17;14.25;;;;;;;;;;2354686;57;21101;-82
2022/09/09 05:24:45;;;;;;;20.48;14.60;;;;;;;;;;2354469;57;21434;-82
2022/09/09 05:27:12;;;;;;;20.20;14.27;;;;;;;;;;2602841;53;21510;-84
2022/09/09 05:29:41;;;;;;;21.42;14.23;;;;;;;;;;2354602;57;21080;-82
2022/09/09 05:32:09;;;;;;;19.52;14.00;;;;;;;;;;2354682;57;21021;-83
2022/09/09 05:34:37;;;;;;;25.08;15.85;;;;;;;;;;2603177;53;21523;-84
2022/09/09 05:37:04;;;;;;;19.55;13.55;;;;;;;;;;2602854;53;21038;-80
2022/09/09 05:39:32;;;;;;;17.95;12.98;;;;;;;;;;2603249;52;21125;-84
2022/09/09 05:41:59;;;;;;;22.05;13.50;;;;;;;;;;2354715;57;21041;-84
2022/09/09 05:44:27;;;;;;;16.98;12.48;;;;;;;;;;2354596;57;21101;-83
2022/09/09 05:46:54;;;;;;;17.98;11.95;;;;;;;;;;2603040;53;21017;-82
2022/09/09 05:49:21;;;;;;;16.62;12.18;;;;;;;;;;2354632;57;21092;-83
2022/09/09 05:51:50;;;;;;;14.85;9.88;;;;;;;;;;2354568;57;21030;-82
2022/09/09 05:54:17;;;;;;;14.95;10.50;;;;;;;;;;2354584;57;21037;-83
2022/09/09 05:56:44;;;;;;;12.70;9.88;;;;;;;;;;2354124;57;21097;-82
2022/09/09 05:59:12;;;;;;;14.77;9.65;;;;;;;;;;2603339;52;21052;-82
2022/09/09 06:01:40;;;;;;;14.15;10.02;;;;;;;;;;2603117;53;21109;-81
2022/09/09 06:04:07;;;;;;;14.02;10.32;;;;;;;;;;2354746;57;21025;-82
2022/09/09 06:06:36;;;;;;;16.58;9.20;;;;;;;;;;2354127;57;21042;-84
2022/09/09 06:09:06;;;;;;;13.35;9.55;;;;;;;;;;2603207;52;21494;-84
2022/09/09 06:11:35;;;;;;;15.45;10.68;;;;;;;;;;2354420;57;21113;-82
2022/09/09 06:14:02;;;;;;;11.38;8.52;;;;;;;;;;2353904;57;21578;-81
2022/09/09 06:16:30;;;;;;;12.65;9.25;;;;;;;;;;2353108;57;21109;-81
2022/09/09 06:18:57;;;;;;;12.75;9.18;;;;;;;;;;2602128;52;21028;-84
2022/09/09 06:21:25;;;;;;;14.98;9.35;;;;;;;;;;2601963;53;21026;-81
2022/09/09 06:23:52;;;;;;;10.88;8.13;;;;;;;;;;2353580;57;21030;-81
2022/09/09 06:26:21;;;;;;;10.68;8.40;;;;;;;;;;2601513;53;21573;-83
2022/09/09 06:28:49;;;;;;;11.55;9.10;;;;;;;;;;2353715;57;21097;-81
2022/09/09 06:31:17;;;;;;;10.95;7.87;;;;;;;;;;2353483;57;21104;-84
2022/09/09 06:33:44;;;;;;;9.73;7.78;;;;;;;;;;2353584;57;21081;-83
2022/09/09 06:36:12;;;;;;;12.75;9.10;;;;;;;;;;2353077;57;21054;-81
2022/09/09 06:38:39;;;;;;;13.90;9.05;;;;;;;;;;2353621;57;21589;-81
2022/09/09 06:41:06;;;;;;;13.15;7.85;;;;;;;;;;2601908;52;21064;-84
2022/09/09 06:43:34;;;;;;;13.50;8.68;;;;;;;;;;2602010;53;21506;-81
2022/09/09 06:46:02;;;;;;;11.57;7.87;;;;;;;;;;2601439;53;21530;-79
2022/09/09 06:48:29;;;;;;;12.82;6.87;;;;;;;;;;2601769;53;21574;-81
2022/09/09 06:51:03;;;;;;;10.55;6.70;;;;;;;;;;2601670;52;21165;-80
2022/09/09 06:53:30;;;;;;;11.45;8.05;;;;;;;;;;2353510;57;21018;-81
2022/09/09 06:55:57;;;;;;;8.80;6.30;;;;;;;;;;2601422;53;21025;-80
2022/09/09 06:58:24;;;;;;;10.25;6.95;;;;;;;;;;2353308;57;21034;-81
2022/09/09 07:00:51;;;;;;;7.82;6.10;;;;;;;;;;2353195;57;21033;-81
2022/09/09 07:03:18;;;;;;;10.68;5.90;;;;;;;;;;2353464;57;21048;-82
2022/09/09 07:05:54;;;;;;;9.57;6.05;;;;;;;;;;2601473;53;21044;-80
2022/09/09 07:08:21;;;;;;;8.68;5.75;;;;;;;;;;2353473;57;21515;-81
2022/09/09 07:10:49;;;;;;;7.82;5.70;;;;;;;;;;2601808;52;21082;-81
2022/09/09 07:13:15;;;;;;;7.25;5.15;;;;;;;;;;2354211;57;21041;-82
2022/09/09 07:15:42;;;;;;;8.60;5.32;;;;;;;;;;2354037;57;21634;-81
2022/09/09 07:18:10;;;;;;;11.18;5.50;;;;;;;;;;2354571;57;21101;-82
2022/09/09 07:20:37;;;;;;;7.65;5.05;;;;;;;;;;2354769;57;21105;-80
2022/09/09 07:23:04;;;;;;;6.05;4.28;;;;;;;;;;2603088;53;21129;-81
2022/09/09 07:25:30;;;;;;;9.15;5.12;;;;;;;;;;2354151;57;21098;-81
2022/09/09 07:27:57;;;;;;;5.15;4.30;;;;;;;;;;2603014;53;21627;-83
2022/09/09 07:30:24;;;;;;;8.55;5.05;;;;;;;;;;2354477;57;21450;-80
2022/09/09 07:32:52;;;;;;;10.85;4.87;;;;;;;;;;2354334;57;21096;-82
2022/09/09 07:35:20;;;;;;;7.22;4.72;;;;;;;;;;2354103;57;21078;-79
2022/09/09 07:37:47;;;;;;;7.60;4.85;;;;;;;;;;2603171;53;21033;-82
2022/09/09 07:40:14;;;;;;;4.53;4.05;;;;;;;;;;2603238;52;21152;-81
2022/09/09 07:42:41;;;;;;;7.50;4.80;;;;;;;;;;2602992;53;21030;-81
2022/09/09 07:45:09;;;;;;;7.62;4.55;;;;;;;;;;2603417;53;21013;-81
2022/09/09 07:47:36;;;;;;;5.78;4.43;;;;;;;;;;2602742;53;21030;-83
2022/09/09 07:50:03;;;;;;;4.85;4.28;;;;;;;;;;2354525;57;21030;-82
2022/09/09 07:52:29;;;;;;;6.43;4.40;;;;;;;;;;2354138;57;21033;-83
2022/09/09 07:54:56;;;;;;;6.12;4.43;;;;;;;;;;2603186;53;21081;-82
2022/09/09 07:57:23;;;;;;;8.68;3.80;;;;;;;;;;2353728;57;21046;-82
2022/09/09 07:59:51;;;;;;;9.00;4.65;;;;;;;;;;2354371;57;21593;-81
2022/09/09 08:02:18;;;;;;;6.37;4.00;;;;;;;;;;2354290;57;21036;-82
2022/09/09 08:04:46;;;;;;;9.85;4.30;;;;;;;;;;2603198;53;21129;-82
2022/09/09 08:07:13;;;;;;;4.68;3.58;;;;;;;;;;2353942;57;21580;-81
2022/09/09 08:09:40;;;;;;;5.18;3.65;;;;;;;;;;2353749;57;21605;-83
2022/09/09 08:12:08;;;;;;;5.93;4.20;;;;;;;;;;2601751;53;21514;-80
2022/09/09 08:14:35;;;;;;;7.30;4.10;;;;;;;;;;2601559;53;21089;-79
2022/09/09 08:17:02;;;;;;;5.68;3.42;;;;;;;;;;2353011;57;21089;-80
2022/09/09 08:19:29;;;;;;;5.00;3.22;;;;;;;;;;2353179;57;21514;-81
2022/09/09 08:21:56;;;;;;;4.80;3.72;;;;;;;;;;2601732;53;21022;-80
2022/09/09 08:24:23;;;;;;;4.45;3.92;;;;;;;;;;2353117;57;21093;-80
2022/09/09 08:26:50;;;;;;;4.75;3.20;;;;;;;;;;2352950;57;21025;-80
2022/09/09 08:29:17;;;;;;;3.40;3.08;;;;;;;;;;2353060;57;21045;-80
2022/09/09 08:31:45;;;;;;;6.90;3.33;;;;;;;;;;2353238;57;21038;-81
2022/09/09 08:34:12;;;;;;;8.50;3.90;;;;;;;;;;2354057;57;21056;-81
2022/09/09 08:36:42;;;;;;;3.50;2.83;;;;;;;;;;2354151;57;21598;-82
2022/09/09 08:39:09;;;;;;;4.57;3.17;;;;;;;;;;2354565;57;21073;-82
2022/09/09 08:41:40;;;;;;;3.97;2.92;;;;;;;;;;2603268;53;21068;-81
2022/09/09 08:44:10;;;;;;;5.18;3.20;;;;;;;;;;2354389;57;21572;-81
2022/09/09 08:46:43;;;;;;;7.55;4.47;;;;;;;;;;2354157;57;21534;-82
2022/09/09 08:49:17;;;;;;;5.07;2.70;;;;;;;;;;2602949;52;21046;-80
2022/09/09 08:51:44;;;;;;;3.92;2.97;;;;;;;;;;2353897;57;21029;-80
2022/09/09 08:54:11;;;;;;;5.47;2.90;;;;;;;;;;2602171;53;21026;-80
2022/09/09 08:56:38;;;;;;;3.95;2.85;;;;;;;;;;2353533;57;21089;-80
2022/09/09 08:59:05;;;;;;;4.78;3.10;;;;;;;;;;2354120;57;21057;-80
2022/09/09 09:01:50;;;;;;;4.62;3.20;;;;;;;;;;2354089;57;21471;-81
2022/09/09 09:04:27;;;;;;;3.67;3.10;;;;;;;;;;2602479;53;21033;-80
2022/09/09 09:07:00;;;;;;;5.00;3.15;;;;;;;;;;2353560;57;21034;-81
2022/09/09 09:09:32;;;;;;;3.08;2.37;;;;;;;;;;2354017;57;21049;-80
2022/09/09 09:12:01;;;;;;;3.97;2.58;;;;;;;;;;2354089;57;21029;-81
2022/09/09 09:14:30;;;;;;;5.95;2.92;;;;;;;;;;2354022;57;21038;-79
2022/09/09 09:16:58;;;;;;;3.67;2.50;;;;;;;;;;2353684;57;21073;-81
2022/09/09 09:19:26;;;;;;;3.60;2.45;;;;;;;;;;2353784;57;21194;-80
2022/09/09 09:21:55;;;;;;;3.17;1.90;;;;;;;;;;2602218;53;21089;-80
2022/09/09 09:24:26;;;;;;;4.18;2.15;;;;;;;;;;2353763;57;21101;-79
2022/09/09 09:26:54;;;;;;;3.22;1.80;;;;;;;;;;2353533;57;21518;-79
2022/09/09 09:29:22;;;;;;;3.55;2.40;;;;;;;;;;2602289;52;21521;-80
2022/09/09 09:31:51;;;;;;;4.03;1.83;;;;;;;;;;2353916;57;21029;-80
2022/09/09 09:34:18;;;;;;;5.47;2.15;;;;;;;;;;2353896;57;21028;-80
2022/09/09 09:36:47;;;;;;;2.58;1.55;;;;;;;;;;2353518;57;21045;-80
2022/09/09 09:39:24;;;;;;;4.68;2.10;;;;;;;;;;2353638;57;21030;-80
2022/09/09 09:41:51;;;;;;;2.92;2.15;;;;;;;;;;2354102;57;21025;-79
2022/09/09 09:44:26;;;;;;;3.85;2.22;;;;;;;;;;2602182;53;21081;-80
2022/09/09 09:46:53;;;;;;;2.28;2.08;;;;;;;;;;2602113;53;21035;-80
2022/09/09 09:49:20;;;;;;;6.37;2.05;;;;;;;;;;2353863;57;21038;-79
2022/09/09 09:51:47;;;;;;;5.62;2.05;;;;;;;;;;2353823;57;21113;-80
2022/09/09 09:54:22;;;;;;;7.28;2.42;;;;;;;;;;2353915;57;21084;-80
2022/09/09 09:56:49;;;;;;;3.65;1.90;;;;;;;;;;2353502;57;21042;-80
2022/09/09 09:59:35;;;;;;;3.70;2.10;;;;;;;;;;2353947;57;21085;-80
2022/09/09 10:02:15;;;;;;;4.97;2.28;;;;;;;;;;2602440;53;21038;-80
2022/09/09 10:04:42;;;;;;;4.25;2.28;;;;;;;;;;2353646;57;21502;-79
2022/09/09 10:07:12;;;;;;;4.28;1.67;;;;;;;;;;2602041;53;21105;-80
2022/09/09 10:09:40;;;;;;;5.20;1.98;;;;;;;;;;2602099;52;21093;-80
2022/09/09 10:12:12;;;;;;;2.65;1.20;;;;;;;;;;2353959;57;21093;-79
2022/09/09 10:14:43;;;;;;;3.03;1.50;;;;;;;;;;2353866;57;21096;-79
2022/09/09 10:17:21;;;;;;;1.90;1.67;;;;;;;;;;2353364;57;21097;-79
2022/09/09 10:19:55;;;;;;;2.50;1.87;;;;;;;;;;2353653;57;21077;-79
2022/09/09 10:22:27;;;;;;;4.15;1.42;;;;;;;;;;2353681;57;21073;-79
2022/09/09 10:24:59;;;;;;;3.75;1.85;;;;;;;;;;2353522;57;21113;-80
2022/09/09 10:27:29;;;;;;;5.90;2.05;;;;;;;;;;2353240;57;21045;-79
2022/09/09 10:30:08;;;;;;;5.15;1.80;;;;;;;;;;2353762;57;21041;-79
2022/09/09 10:32:38;;;;;;;4.60;1.50;;;;;;;;;;2353787;57;21559;-79
2022/09/09 10:35:10;;;;;;;2.92;1.20;;;;;;;;;;2602125;53;21159;-79
2022/09/09 10:37:52;;;;;;;2.92;1.55;;;;;;;;;;2353517;57;21045;-79
2022/09/09 10:40:24;;;;;;;1.98;1.10;;;;;;;;;;2601913;52;21025;-80
2022/09/09 10:42:51;;;;;;;1.92;1.20;;;;;;;;;;2353758;57;21100;-79
2022/09/09 10:45:20;;;;;;;3.47;1.23;;;;;;;;;;2601786;53;21029;-79
2022/09/09 10:48:00;;;;;;;3.37;1.50;;;;;;;;;;2353586;57;21112;-79
2022/09/09 10:50:34;;;;;;;2.53;1.10;;;;;;;;;;2353690;57;21045;-80
2022/09/09 10:53:03;;;;;;;3.12;1.50;;;;;;;;;;2602002;53;21088;-80
2022/09/09 10:55:36;;;;;;;3.10;1.30;;;;;;;;;;2601579;53;21112;-79
2022/09/09 10:58:04;;;;;;;5.12;1.60;;;;;;;;;;2353694;57;21427;-79
2022/09/09 11:00:38;;;;;;;3.65;1.27;;;;;;;;;;2353523;57;21042;-79
2022/09/09 11:03:04;;;;;;;;;;;;;;;;;;2605730;53;21029;-79
2022/09/09 11:05:33;;;;;;;3.25;1.20;;;;;;;;;;2353182;57;20351;-80
2022/09/09 11:08:02;;;;;;;6.00;2.85;;;;;;;;;;2602129;53;21160;-79
2022/09/09 11:10:34;;;;;;;2.62;1.37;;;;;;;;;;2353366;57;21033;-78
2022/09/09 11:13:03;;;;;;;1.85;1.00;;;;;;;;;;2353676;57;21104;-79
2022/09/09 11:15:36;;;;;;;2.50;1.30;;;;;;;;;;2601641;53;21505;-79
2022/09/09 11:18:05;;;;;;;4.35;1.30;;;;;;;;;;2353374;57;21144;-80
2022/09/09 11:20:32;;;;;;;1.33;0.93;;;;;;;;;;2601903;52;21030;-80
2022/09/09 11:23:02;;;;;;;2.37;1.20;;;;;;;;;;2601973;53;21010;-78
2022/09/09 11:25:32;;;;;;;2.85;1.50;;;;;;;;;;2353047;57;21029;-79
2022/09/09 11:28:06;;;;;;;3.00;1.40;;;;;;;;;;2353413;57;21038;-79
2022/09/09 11:30:37;;;;;;;4.32;1.33;;;;;;;;;;2601922;52;21038;-79
2022/09/09 11:33:24;;;;;;;1.73;1.52;;;;;;;;;;2353716;57;21049;-80
2022/09/09 11:35:57;;;;;;;1.73;1.17;;;;;;;;;;2602051;53;21022;-80
2022/09/09 11:38:26;;;;;;;2.97;1.20;;;;;;;;;;2354284;57;21018;-80
2022/09/09 11:40:59;;;;;;;2.90;1.95;;;;;;;;;;2354199;57;21109;-80
2022/09/09 11:43:27;;;;;;;2.08;1.10;;;;;;;;;;2354214;57;21410;-80
2022/09/09 11:45:58;;;;;;;1.87;1.05;;;;;;;;;;2602089;53;21040;-80
2022/09/09 11:48:27;;;;;;;2.45;1.20;;;;;;;;;;2354179;57;21042;-81
2022/09/09 11:51:01;;;;;;;2.60;1.30;;;;;;;;;;2354155;57;21529;-80
2022/09/09 11:53:28;;;;;;;2.60;1.30;;;;;;;;;;2354176;57;21537;-80
2022/09/09 11:56:03;;;;;;;2.12;1.02;;;;;;;;;;2602254;53;21033;-80
2022/09/09 11:58:32;;;;;;;2.35;1.05;;;;;;;;;;2354221;57;21018;-81
2022/09/09 12:00:59;;;;;;;1.58;0.93;;;;;;;;;;2602625;52;21013;-80
2022/09/09 12:03:42;;;;;;;3.08;1.33;;;;;;;;;;2354094;57;21026;-81
2022/09/09 12:06:15;;;;;;;2.67;1.10;;;;;;;;;;2353995;57;21112;-80
2022/09/09 12:08:45;;;;;;;3.70;1.37;;;;;;;;;;2354550;57;21152;-81
2022/09/09 12:11:12;;;;;;;2.78;1.00;;;;;;;;;;2602731;52;21094;-81
2022/09/09 12:13:39;;;;;;;1.17;0.90;;;;;;;;;;2602437;53;21100;-80
2022/09/09 12:16:28;;;;;;;2.90;1.10;;;;;;;;;;2602099;53;21033;-80
2022/09/09 12:19:04;;;;;;;4.00;1.25;;;;;;;;;;2354002;57;21022;-82
2022/09/09 12:21:36;;;;;;;0.73;0.70;;;;;;;;;;2354054;57;21019;-80
2022/09/09 12:24:07;;;;;;;2.55;1.00;;;;;;;;;;2353848;57;21561;-80
2022/09/09 12:26:36;;;;;;;2.17;0.80;;;;;;;;;;2601895;53;21097;-80
2022/09/09 12:29:07;;;;;;;2.50;1.48;;;;;;;;;;2353893;57;21025;-81
2022/09/09 12:31:37;;;;;;;1.80;1.23;;;;;;;;;;2354200;57;21045;-80
2022/09/09 12:34:10;;;;;;;1.65;1.20;;;;;;;;;;2354441;57;21093;-80
2022/09/09 12:36:38;;;;;;;1.33;1.20;;;;;;;;;;2602657;53;21049;-80
2022/09/09 12:39:11;;;;;;;1.35;1.00;;;;;;;;;;2354283;57;21566;-80
2022/09/09 12:41:38;;;;;;;2.85;1.10;;;;;;;;;;2354238;57;21033;-80
2022/09/09 12:44:06;;;;;;;2.70;1.10;;;;;;;;;;2354198;57;21041;-80
2022/09/09 12:46:36;;;;;;;3.37;1.30;;;;;;;;;;2602262;53;21014;-80
2022/09/09 12:49:03;;;;;;;4.50;1.45;;;;;;;;;;2354069;57;21038;-80
2022/09/09 12:51:31;;;;;;;3.60;1.30;;;;;;;;;;2602968;53;21474;-80
2022/09/09 12:53:59;;;;;;;4.60;1.60;;;;;;;;;;2354150;57;21513;-80
2022/09/09 12:56:27;;;;;;;2.83;1.37;;;;;;;;;;2353705;57;21037;-80
2022/09/09 12:58:55;;;;;;;5.18;1.83;;;;;;;;;;2354108;57;21085;-80
2022/09/09 13:01:23;;;;;;;1.80;1.40;;;;;;;;;;2353907;57;21081;-80
2022/09/09 13:03:50;;;;;;;1.87;1.25;;;;;;;;;;2602623;53;21045;-80
2022/09/09 13:06:22;;;;;;;2.62;1.60;;;;;;;;;;2353823;57;21029;-80
2022/09/09 13:08:50;;;;;;;2.72;1.20;;;;;;;;;;2354537;57;21018;-80
2022/09/09 13:11:18;;;;;;;2.62;1.42;;;;;;;;;;2354267;57;21589;-80
2022/09/09 13:13:51;;;;;;;2.22;1.30;;;;;;;;;;2602823;53;21531;-80
2022/09/09 13:16:20;;;;;;;1.65;1.50;;;;;;;;;;2353864;57;21057;-81
2022/09/09 13:18:47;;;;;;;1.58;1.27;;;;;;;;;;2354259;57;21109;-80
2022/09/09 13:21:15;;;;;;;4.12;1.73;;;;;;;;;;2560142;52;21024;-84
2022/09/09 13:23:42;;;;;;;2.22;1.40;;;;;;;;;;2312644;58;21028;-84
2022/09/09 13:26:21;;;;;;;2.35;1.60;;;;;;;;;;2551441;54;21049;-84
2022/09/09 13:28:49;;;;;;;4.10;1.50;;;;;;;;;;2551901;53;21044;-84
2022/09/09 13:31:21;;;;;;;3.33;1.75;;;;;;;;;;2551827;54;21088;-84
2022/09/09 13:33:48;;;;;;;4.20;1.23;;;;;;;;;;2312567;58;21151;-83
2022/09/09 13:36:15;;;;;;;3.10;1.40;;;;;;;;;;2312178;58;21109;-83
2022/09/09 13:38:54;;;;;;;2.53;1.25;;;;;;;;;;2551878;54;21069;-84
2022/09/09 13:41:23;;;;;;;3.55;1.23;;;;;;;;;;2551629;53;21052;-83
2022/09/09 13:43:50;;;;;;;1.45;1.10;;;;;;;;;;2312481;58;21041;-84
2022/09/09 13:46:27;;;;;;;1.67;1.40;;;;;;;;;;2312326;58;21045;-84
2022/09/09 13:48:57;;;;;;;2.20;1.40;;;;;;;;;;2551930;54;21040;-84
2022/09/09 13:51:30;;;;;;;2.87;1.30;;;;;;;;;;2312610;58;21040;-84
2022/09/09 13:53:57;;;;;;;2.27;1.30;;;;;;;;;;2313166;58;21108;-84
2022/09/09 13:56:24;;;;;;;3.03;1.40;;;;;;;;;;2551679;54;21577;-84
2022/09/09 13:58:51;;;;;;;2.65;1.35;;;;;;;;;;2552243;54;21052;-84
2022/09/09 14:01:18;;;;;;;5.32;1.65;;;;;;;;;;2312583;58;21112;-84
2022/09/09 14:03:45;;;;;;;1.83;1.30;;;;;;;;;;2552192;54;21044;-84
2022/09/09 14:06:13;;;;;;;5.20;1.52;;;;;;;;;;2312438;58;21032;-84
2022/09/09 14:08:40;;;;;;;3.92;1.30;;;;;;;;;;2551999;54;21028;-84
2022/09/09 14:11:10;;;;;;;2.10;1.20;;;;;;;;;;2312457;58;21029;-84
2022/09/09 14:13:37;;;;;;;5.12;1.60;;;;;;;;;;2312933;58;21108;-84
2022/09/09 14:16:04;;;;;;;4.10;1.25;;;;;;;;;;2551780;54;21060;-84
2022/09/09 14:18:31;;;;;;;1.80;0.90;;;;;;;;;;2312771;58;21092;-84
2022/09/09 14:20:58;;;;;;;3.42;1.42;;;;;;;;;;2312700;58;21057;-84
2022/09/09 14:23:25;;;;;;;3.67;1.33;;;;;;;;;;2551974;54;21044;-84
2022/09/09 14:25:52;;;;;;;4.03;1.12;;;;;;;;;;2312396;58;21045;-84
2022/09/09 14:28:19;;;;;;;5.15;1.40;;;;;;;;;;2551757;54;21036;-84
2022/09/09 14:30:46;;;;;;;1.95;1.15;;;;;;;;;;2312697;58;21057;-84
2022/09/09 14:33:14;;;;;;;1.52;1.00;;;;;;;;;;2551929;54;21092;-83
2022/09/09 14:35:42;;;;;;;3.60;1.45;;;;;;;;;;2551440;54;21168;-84
2022/09/09 14:38:09;;;;;;;5.05;2.15;;;;;;;;;;2551980;54;21091;-84
2022/09/09 14:40:36;;;;;;;2.85;1.40;;;;;;;;;;2552004;54;21124;-83
2022/09/09 14:43:04;;;;;;;2.05;1.30;;;;;;;;;;2551867;54;21038;-84